Sycamore, South Carolina
Current Conditions -  °F | °C
As of 11:15 PM on Sunday 23 Nov 2014 (Local Time) from KAQX Reporting Station
Light Rain Light Rain  
Wind Chill: 68°   Ceiling: 3700
Heat Index: 68°   Visibility: 2.5mi
Dew Point: 66°   Wind: 7mph
Humidity: 94%   Direction: NA
Pressure: 29.82"   Gusts: 14mph
Location:  33.04°N, 81.22°W
Report Text: KAQX 240415Z AUTO VRB06G12KT 2 1/2SM -RA FEW005 BKN037 OVC075 20/19 A2982 RMK AO2 LTG DSNT E
Loading
Personal Weather Stations






























Interactive Weather Map New forecast layout! Learn more

10-Day Weather Forecast

Advertisements
Track Severe Weather on mobile